Time;durP1;ratioP1;P1;durP2;ratioP2;P2;SDS_P1;SDS_P2;PMS_P1;PMS_P2;Temp;Humidity;BMP_temperature;BMP_pressure;BME280_temperature;BME280_humidity;BME280_pressure;Samples;Min_cycle;Max_cycle;Signal;HPM_P1;HPM_P2
2023/07/12 00:01:10;;;;;;;2.10;1.25;;;20.50;99.90;;;;;;5015100;28;20463;-43
2023/07/12 00:03:36;;;;;;;2.70;1.52;;;20.60;99.90;;;;;;5018636;28;20475;-43
2023/07/12 00:06:02;;;;;;;5.18;1.73;;;20.60;99.90;;;;;;5023380;28;20095;-43
2023/07/12 00:08:28;;;;;;;3.08;1.55;;;20.50;99.90;;;;;;5016853;28;20214;-40
2023/07/12 00:10:56;;;;;;;3.78;1.80;;;20.20;99.90;;;;;;5001119;28;20424;-43
2023/07/12 00:13:25;;;;;;;3.63;1.88;;;20.30;99.90;;;;;;5019611;28;20082;-42
2023/07/12 00:15:52;;;;;;;3.47;1.70;;;20.40;99.90;;;;;;5016864;28;20036;-36
2023/07/12 00:18:25;;;;;;;3.67;1.77;;;20.30;99.90;;;;;;5016990;28;20526;-37
2023/07/12 00:20:52;;;;;;;5.95;2.10;;;20.30;99.90;;;;;;5019173;28;20048;-43
2023/07/12 00:23:18;;;;;;;5.07;1.90;;;20.40;99.90;;;;;;5021099;28;20037;-41
2023/07/12 00:25:46;;;;;;;3.75;2.05;;;20.40;99.90;;;;;;5022983;28;20033;-31
2023/07/12 00:28:23;;;;;;;3.60;2.05;;;20.50;99.90;;;;;;5022037;28;20037;-32
2023/07/12 00:30:50;;;;;;;6.22;2.33;;;20.30;99.90;;;;;;5018971;28;20112;-31
2023/07/12 00:33:17;;;;;;;2.87;2.10;;;20.30;99.90;;;;;;5023775;28;20030;-33
2023/07/12 00:35:43;;;;;;;3.78;2.15;;;20.40;99.90;;;;;;5025219;28;20263;-31
2023/07/12 00:38:17;;;;;;;3.92;2.20;;;20.30;99.90;;;;;;5024899;28;20684;-31
2023/07/12 00:40:49;;;;;;;4.60;2.28;;;20.30;99.90;;;;;;5019260;28;20029;-31
2023/07/12 00:43:34;;;;;;;4.10;2.70;;;20.20;99.90;;;;;;5020337;28;20378;-32
2023/07/12 00:46:02;;;;;;;2.65;2.00;;;19.90;99.90;;;;;;5019249;28;20116;-31
2023/07/12 00:48:28;;;;;;;5.95;2.33;;;19.70;99.90;;;;;;5022791;28;20033;-33
2023/07/12 00:50:54;;;;;;;2.25;2.03;;;19.90;99.90;;;;;;5019929;28;20029;-31
2023/07/12 00:53:25;;;;;;;6.65;2.05;;;20.00;99.90;;;;;;5020126;28;20030;-32
2023/07/12 00:55:57;;;;;;;4.75;2.20;;;20.10;99.90;;;;;;5022704;28;20053;-34
2023/07/12 00:58:34;;;;;;;3.05;2.58;;;20.10;99.90;;;;;;5024493;28;20036;-31
2023/07/12 01:01:02;;;;;;;3.47;2.05;;;20.00;99.90;;;;;;5017963;28;20049;-30
2023/07/12 01:03:29;;;;;;;;;;;19.90;99.90;;;;;;5025531;28;20021;-31
2023/07/12 01:05:55;;;;;;;3.47;2.30;;;19.80;99.90;;;;;;5029450;28;19916;-33
2023/07/12 01:08:21;;;;;;;8.25;2.90;;;19.80;99.90;;;;;;5025940;28;20033;-31
2023/07/12 01:10:47;;;;;;;5.18;2.58;;;19.90;99.90;;;;;;5022288;28;20388;-31
2023/07/12 01:13:13;;;;;;;3.25;2.38;;;19.90;99.90;;;;;;5026245;28;20115;-32
2023/07/12 01:15:38;;;;;;;4.15;2.30;;;19.90;99.90;;;;;;5021887;28;20603;-31
2023/07/12 01:18:06;;;;;;;3.38;2.40;;;20.00;99.90;;;;;;5027769;28;20068;-31
2023/07/12 01:20:37;;;;;;;5.40;3.10;;;20.00;99.90;;;;;;5023164;28;20033;-34
2023/07/12 01:23:03;;;;;;;2.97;2.28;;;19.70;99.90;;;;;;5026413;28;20025;-32
2023/07/12 01:25:37;;;;;;;4.13;2.70;;;19.40;99.90;;;;;;5024138;28;20037;-32
2023/07/12 01:28:03;;;;;;;4.47;2.15;;;19.30;99.90;;;;;;5025160;28;20124;-31
2023/07/12 01:30:29;;;;;;;3.88;2.33;;;19.50;99.90;;;;;;5026400;28;20605;-31
2023/07/12 01:32:55;;;;;;;5.68;1.95;;;19.60;99.90;;;;;;5026260;28;20071;-31
2023/07/12 01:35:20;;;;;;;4.63;2.03;;;19.70;99.90;;;;;;5025264;28;20021;-33
2023/07/12 01:37:46;;;;;;;4.07;2.33;;;19.80;99.90;;;;;;5024149;28;20087;-32
2023/07/12 01:40:12;;;;;;;4.45;2.13;;;19.80;99.90;;;;;;5025847;28;20033;-34
2023/07/12 01:42:37;;;;;;;2.50;2.17;;;19.70;99.90;;;;;;5022702;28;20096;-33
2023/07/12 01:45:03;;;;;;;2.55;1.90;;;19.80;99.90;;;;;;5023660;28;20576;-35
2023/07/12 01:47:30;;;;;;;2.80;2.22;;;19.90;99.90;;;;;;5017908;28;20041;-34
2023/07/12 01:49:56;;;;;;;3.63;2.10;;;19.90;99.90;;;;;;5020311;28;20033;-34
2023/07/12 01:52:22;;;;;;;3.28;2.15;;;19.80;99.90;;;;;;5022918;28;20022;-33
2023/07/12 01:54:48;;;;;;;3.20;1.65;;;19.80;99.90;;;;;;5026347;28;20166;-33
2023/07/12 01:57:14;;;;;;;3.17;2.10;;;19.80;99.90;;;;;;5019596;28;20052;-36
2023/07/12 01:59:39;;;;;;;5.03;1.90;;;19.80;99.90;;;;;;5021889;28;20080;-35
2023/07/12 02:02:05;;;;;;;5.38;1.88;;;19.80;99.90;;;;;;5019060;28;20029;-35
2023/07/12 02:04:31;;;;;;;1.98;1.60;;;19.60;99.90;;;;;;5024258;28;20037;-33
2023/07/12 02:06:56;;;;;;;3.65;1.65;;;19.40;99.90;;;;;;5025413;28;20037;-34
2023/07/12 02:09:22;;;;;;;2.53;1.55;;;19.20;99.90;;;;;;5020565;28;20024;-35
2023/07/12 02:11:48;;;;;;;3.70;1.67;;;19.40;99.90;;;;;;5021419;28;20041;-36
2023/07/12 02:14:13;;;;;;;2.38;1.85;;;19.20;99.90;;;;;;5021835;28;20511;-36
2023/07/12 02:16:39;;;;;;;3.72;2.17;;;19.00;99.90;;;;;;5016526;28;20433;-33
2023/07/12 02:19:05;;;;;;;2.80;1.80;;;19.00;99.90;;;;;;5020293;28;20041;-33
2023/07/12 02:21:30;;;;;;;5.43;1.95;;;18.70;99.90;;;;;;5004548;28;20138;-34
2023/07/12 02:23:56;;;;;;;3.72;1.90;;;18.70;99.90;;;;;;5023668;28;20021;-35
2023/07/12 02:26:23;;;;;;;2.13;1.85;;;18.80;99.90;;;;;;5021684;28;20033;-33
2023/07/12 02:28:49;;;;;;;4.00;2.10;;;18.90;99.90;;;;;;5021659;28;20049;-35
2023/07/12 02:31:17;;;;;;;1.90;1.67;;;18.90;99.90;;;;;;5017063;28;20529;-35
2023/07/12 02:33:42;;;;;;;4.68;2.08;;;19.10;99.90;;;;;;5022631;28;20388;-34
2023/07/12 02:36:08;;;;;;;2.85;1.90;;;19.10;99.90;;;;;;5021142;28;20030;-33
2023/07/12 02:38:34;;;;;;;3.65;2.00;;;19.20;99.90;;;;;;5022834;28;20026;-35
2023/07/12 02:41:00;;;;;;;2.90;1.90;;;19.10;99.90;;;;;;5021633;28;20021;-33
2023/07/12 02:43:26;;;;;;;15.00;2.70;;;19.10;99.90;;;;;;5018802;28;20022;-33
2023/07/12 02:45:51;;;;;;;3.28;1.85;;;19.00;99.90;;;;;;5024327;28;20044;-31
2023/07/12 02:48:17;;;;;;;2.95;2.05;;;18.90;99.90;;;;;;5026764;28;20061;-31
2023/07/12 02:50:42;;;;;;;3.47;2.15;;;18.80;99.90;;;;;;5024823;28;20029;-30
2023/07/12 02:53:19;;;;;;;4.80;2.15;;;18.90;99.90;;;;;;5024971;28;20112;-34
2023/07/12 02:55:48;;;;;;;3.65;1.90;;;18.90;99.90;;;;;;5020916;28;20376;-30
2023/07/12 02:58:14;;;;;;;2.70;2.15;;;18.90;99.90;;;;;;5022040;28;20048;-30
2023/07/12 03:00:39;;;;;;;2.63;2.00;;;18.90;99.90;;;;;;5023907;28;20038;-31
2023/07/12 03:03:05;;;;;;;3.83;2.15;;;19.00;99.90;;;;;;5022031;28;20487;-30
2023/07/12 03:05:34;;;;;;;4.15;2.10;;;18.90;99.90;;;;;;5022102;28;20040;-32
2023/07/12 03:07:59;;;;;;;4.38;1.90;;;18.90;99.90;;;;;;5026922;28;20133;-30
2023/07/12 03:10:25;;;;;;;5.07;2.45;;;19.00;99.90;;;;;;5025512;28;20092;-30
2023/07/12 03:12:51;;;;;;;2.67;2.10;;;18.90;99.90;;;;;;5023029;28;20098;-31
2023/07/12 03:15:16;;;;;;;2.63;2.00;;;19.00;99.90;;;;;;5021709;28;20033;-33
2023/07/12 03:17:42;;;;;;;2.45;2.22;;;18.90;99.90;;;;;;5024031;28;20049;-36
2023/07/12 03:20:08;;;;;;;2.88;1.85;;;18.90;99.90;;;;;;5026316;28;20037;-32
2023/07/12 03:22:33;;;;;;;4.63;2.47;;;18.90;99.90;;;;;;5021089;28;20033;-31
2023/07/12 03:24:59;;;;;;;4.10;2.67;;;19.00;99.90;;;;;;5024227;28;20033;-32
2023/07/12 03:27:26;;;;;;;4.35;2.22;;;18.90;99.90;;;;;;5015715;28;20034;-33
2023/07/12 03:29:51;;;;;;;4.40;2.20;;;19.00;99.90;;;;;;5022078;28;20132;-32
2023/07/12 03:32:17;;;;;;;3.15;2.10;;;19.10;99.90;;;;;;5017976;28;20554;-36
2023/07/12 03:34:43;;;;;;;5.00;2.15;;;19.20;99.90;;;;;;5023682;28;20018;-30
2023/07/12 03:37:08;;;;;;;4.03;2.10;;;19.20;99.90;;;;;;5021387;28;20046;-31
2023/07/12 03:39:34;;;;;;;2.95;2.10;;;19.20;99.90;;;;;;5018472;28;20022;-31
2023/07/12 03:41:59;;;;;;;5.40;2.50;;;19.10;99.90;;;;;;5024030;28;20033;-32
2023/07/12 03:44:25;;;;;;;7.07;2.50;;;19.10;99.90;;;;;;5022216;28;20022;-31
2023/07/12 03:46:50;;;;;;;3.35;2.15;;;19.10;99.90;;;;;;5021604;28;20057;-31
2023/07/12 03:49:16;;;;;;;3.55;2.28;;;19.10;99.90;;;;;;5023420;28;20025;-31
2023/07/12 03:51:42;;;;;;;6.55;2.80;;;19.10;99.90;;;;;;5022324;28;20483;-31
2023/07/12 03:54:07;;;;;;;3.05;2.40;;;19.20;99.90;;;;;;5019363;28;20026;-33
2023/07/12 03:56:33;;;;;;;4.47;2.58;;;19.20;99.90;;;;;;5018367;28;20097;-42
2023/07/12 03:58:58;;;;;;;6.68;2.78;;;19.00;99.90;;;;;;5020925;28;20029;-38
2023/07/12 04:01:24;;;;;;;5.68;3.00;;;18.70;99.90;;;;;;5015827;28;20033;-37
2023/07/12 04:03:49;;;;;;;3.92;2.67;;;18.70;99.90;;;;;;5020092;28;20038;-40
2023/07/12 04:06:15;;;;;;;6.60;2.95;;;18.70;99.90;;;;;;5023674;28;20609;-40
2023/07/12 04:08:41;;;;;;;4.68;2.30;;;18.80;99.90;;;;;;5016164;28;20036;-40
2023/07/12 04:11:07;;;;;;;4.20;2.28;;;18.90;99.90;;;;;;5017532;28;20033;-41
2023/07/12 04:13:33;;;;;;;3.03;2.20;;;19.00;99.90;;;;;;5020000;28;20475;-41
2023/07/12 04:16:00;;;;;;;3.90;2.20;;;19.10;99.90;;;;;;5016268;28;20029;-36
2023/07/12 04:18:27;;;;;;;4.43;2.17;;;19.10;99.90;;;;;;5020023;28;20148;-41
2023/07/12 04:20:54;;;;;;;7.78;3.03;;;19.10;99.90;;;;;;5021789;28;20068;-37
2023/07/12 04:23:19;;;;;;;4.88;2.55;;;18.90;99.90;;;;;;5021371;28;20034;-41
2023/07/12 04:25:45;;;;;;;4.45;2.63;;;18.60;99.90;;;;;;5020349;28;20030;-41
2023/07/12 04:28:11;;;;;;;5.10;2.15;;;18.70;99.90;;;;;;5021586;28;20031;-39
2023/07/12 04:30:37;;;;;;;6.20;3.00;;;18.80;99.90;;;;;;5015956;28;20076;-41
2023/07/12 04:33:03;;;;;;;4.55;2.53;;;18.90;99.90;;;;;;5019880;28;20483;-39
2023/07/12 04:35:29;;;;;;;4.75;2.50;;;18.90;99.90;;;;;;5021598;28;20041;-41
2023/07/12 04:37:55;;;;;;;5.30;2.63;;;19.00;99.90;;;;;;5020792;28;20021;-40
2023/07/12 04:40:20;;;;;;;6.90;2.97;;;19.10;99.90;;;;;;5023038;28;20232;-41
2023/07/12 04:42:46;;;;;;;2.88;2.30;;;19.10;99.90;;;;;;5018453;28;20037;-41
2023/07/12 04:45:13;;;;;;;2.85;2.33;;;19.10;99.90;;;;;;5017831;28;20034;-39
2023/07/12 04:47:42;;;;;;;6.15;2.28;;;19.10;99.90;;;;;;5015272;28;20033;-41
2023/07/12 04:50:11;;;;;;;3.58;2.50;;;19.10;99.90;;;;;;5018204;28;20112;-40
2023/07/12 04:52:38;;;;;;;4.80;2.22;;;19.20;99.90;;;;;;5020274;28;20095;-41
2023/07/12 04:55:18;;;;;;;4.63;2.55;;;19.40;99.90;;;;;;5018670;28;20029;-41
2023/07/12 04:57:43;;;;;;;4.28;2.70;;;19.40;99.90;;;;;;5001382;28;20037;-41
2023/07/12 05:00:12;;;;;;;6.15;2.80;;;19.50;99.90;;;;;;5018996;28;20046;-41
2023/07/12 05:02:37;;;;;;;6.40;3.13;;;19.60;99.90;;;;;;5020812;28;20041;-39
2023/07/12 05:05:03;;;;;;;4.82;3.10;;;19.60;99.90;;;;;;5021830;28;20495;-41
2023/07/12 05:07:31;;;;;;;4.32;2.90;;;19.60;99.90;;;;;;5022484;28;20041;-41
2023/07/12 05:09:57;;;;;;;4.18;3.08;;;19.60;99.90;;;;;;5019585;28;20021;-41
2023/07/12 05:12:22;;;;;;;4.32;2.80;;;19.70;99.90;;;;;;5020865;28;20025;-37
2023/07/12 05:14:51;;;;;;;4.40;3.13;;;19.70;99.90;;;;;;5019605;28;20052;-32
2023/07/12 05:17:17;;;;;;;4.63;2.80;;;19.80;99.90;;;;;;5016720;28;20052;-31
2023/07/12 05:19:42;;;;;;;4.55;2.92;;;19.80;99.90;;;;;;5021999;28;20029;-32
2023/07/12 05:22:08;;;;;;;5.97;3.20;;;19.80;99.90;;;;;;5022472;28;20025;-31
2023/07/12 05:24:33;;;;;;;6.15;3.45;;;19.90;99.90;;;;;;5019070;28;20061;-34
2023/07/12 05:26:59;;;;;;;4.45;3.60;;;19.90;99.90;;;;;;5023748;28;20026;-41
2023/07/12 05:29:25;;;;;;;5.07;3.72;;;19.90;99.90;;;;;;5019498;28;20025;-39
2023/07/12 05:31:50;;;;;;;6.47;3.70;;;19.90;99.90;;;;;;5017750;28;20491;-41
2023/07/12 05:34:16;;;;;;;6.75;3.70;;;20.00;99.90;;;;;;5014223;28;20095;-41
2023/07/12 05:36:41;;;;;;;7.28;3.85;;;19.90;99.90;;;;;;5021103;28;20033;-41
2023/07/12 05:39:07;;;;;;;10.13;3.70;;;19.90;99.90;;;;;;5023181;28;20025;-39
2023/07/12 05:41:34;;;;;;;5.22;3.70;;;19.90;99.90;;;;;;5022012;28;20022;-40
2023/07/12 05:43:59;;;;;;;6.57;3.67;;;19.80;99.90;;;;;;5020095;28;20406;-41
2023/07/12 05:46:26;;;;;;;6.53;3.53;;;19.80;99.90;;;;;;5018066;28;20021;-41
2023/07/12 05:48:52;;;;;;;4.57;3.67;;;19.80;99.90;;;;;;5021631;28;20025;-40
2023/07/12 05:51:18;;;;;;;4.05;3.30;;;19.80;99.90;;;;;;5022529;28;20033;-40
2023/07/12 05:53:43;;;;;;;5.82;3.55;;;19.70;99.90;;;;;;5026130;28;20029;-41
2023/07/12 05:56:09;;;;;;;6.28;3.67;;;19.70;99.90;;;;;;5024040;28;20021;-41
2023/07/12 05:58:35;;;;;;;5.40;3.70;;;19.70;99.90;;;;;;5022876;28;20040;-36
2023/07/12 06:01:02;;;;;;;7.40;3.80;;;19.60;99.90;;;;;;5023767;28;20038;-39
2023/07/12 06:03:28;;;;;;;8.85;4.35;;;19.60;99.90;;;;;;5019915;28;20538;-40
2023/07/12 06:05:54;;;;;;;8.70;3.95;;;19.60;99.90;;;;;;5023551;28;20026;-38
2023/07/12 06:08:20;;;;;;;8.98;4.05;;;19.50;99.90;;;;;;5026210;28;20764;-38
2023/07/12 06:10:47;;;;;;;6.15;4.60;;;19.50;99.90;;;;;;5021792;28;20030;-41
2023/07/12 06:13:12;;;;;;;5.25;3.55;;;19.50;99.90;;;;;;5024623;28;20167;-39
2023/07/12 06:15:38;;;;;;;8.50;4.40;;;19.50;99.90;;;;;;5019776;28;20104;-40
2023/07/12 06:18:04;;;;;;;4.53;3.53;;;19.50;99.90;;;;;;5017923;28;20558;-41
2023/07/12 06:20:30;;;;;;;8.25;3.63;;;19.50;99.90;;;;;;5023673;28;20029;-41
2023/07/12 06:22:55;;;;;;;6.53;3.80;;;19.50;99.90;;;;;;5022858;28;20037;-40
2023/07/12 06:25:21;;;;;;;6.70;3.50;;;19.50;99.90;;;;;;5023945;28;20034;-39
2023/07/12 06:27:46;;;;;;;6.15;3.25;;;19.40;99.90;;;;;;5017222;28;20506;-39
2023/07/12 06:30:12;;;;;;;8.38;3.17;;;19.40;99.90;;;;;;5019414;28;20045;-38
2023/07/12 06:32:38;;;;;;;3.45;3.00;;;19.40;99.90;;;;;;5018850;28;20038;-36
2023/07/12 06:35:04;;;;;;;4.55;2.92;;;19.40;99.90;;;;;;5021939;28;20029;-41
2023/07/12 06:37:29;;;;;;;6.65;2.92;;;19.40;99.90;;;;;;5022122;28;20479;-41
2023/07/12 06:39:55;;;;;;;5.00;3.28;;;19.40;99.90;;;;;;5024928;28;20065;-39
2023/07/12 06:42:20;;;;;;;7.00;3.30;;;19.40;99.90;;;;;;5023879;28;20037;-40
2023/07/12 06:44:46;;;;;;;4.65;2.70;;;19.40;99.90;;;;;;5019570;28;20507;-43
2023/07/12 06:47:12;;;;;;;6.78;2.83;;;19.50;99.90;;;;;;5021057;28;20574;-32
2023/07/12 06:49:37;;;;;;;5.78;3.00;;;19.60;99.90;;;;;;5023233;28;20585;-34
2023/07/12 06:52:03;;;;;;;5.57;2.92;;;19.70;99.90;;;;;;5024103;28;20111;-33
2023/07/12 06:54:29;;;;;;;3.28;2.60;;;19.80;99.90;;;;;;5023508;28;20175;-43
2023/07/12 06:56:54;;;;;;;6.20;2.90;;;19.80;99.90;;;;;;5021790;28;20092;-41
2023/07/12 06:59:21;;;;;;;5.35;3.13;;;19.90;99.90;;;;;;5020981;28;20033;-41
2023/07/12 07:01:47;;;;;;;5.40;2.78;;;20.00;99.90;;;;;;5021041;28;20523;-39
2023/07/12 07:04:13;;;;;;;6.22;2.83;;;20.00;99.90;;;;;;5020614;28;20415;-38
2023/07/12 07:06:39;;;;;;;4.55;2.78;;;20.10;99.90;;;;;;5026159;28;20025;-41
2023/07/12 07:09:05;;;;;;;4.15;3.00;;;20.10;99.90;;;;;;5021630;28;20561;-42
2023/07/12 07:11:31;;;;;;;6.93;2.83;;;20.20;99.90;;;;;;5021432;28;20053;-40
2023/07/12 07:13:57;;;;;;;4.15;2.55;;;20.20;99.90;;;;;;5025072;28;20025;-40
2023/07/12 07:16:23;;;;;;;3.97;2.70;;;20.30;99.90;;;;;;5020400;28;20557;-41
2023/07/12 07:18:49;;;;;;;4.35;2.75;;;20.30;99.90;;;;;;5017635;28;20050;-40
2023/07/12 07:21:14;;;;;;;5.95;2.90;;;20.30;99.90;;;;;;5022946;28;20049;-39
2023/07/12 07:23:40;;;;;;;5.50;2.97;;;20.40;99.90;;;;;;5021544;28;20045;-35
2023/07/12 07:26:09;;;;;;;5.47;2.55;;;20.50;99.90;;;;;;5020745;28;20036;-41
2023/07/12 07:28:35;;;;;;;5.43;3.05;;;20.50;99.90;;;;;;5019466;28;20028;-41
2023/07/12 07:31:02;;;;;;;5.57;3.55;;;20.60;99.90;;;;;;5019617;28;20034;-40
2023/07/12 07:33:27;;;;;;;6.85;3.60;;;20.70;99.90;;;;;;5021429;28;20400;-39
2023/07/12 07:35:54;;;;;;;8.52;2.97;;;20.80;99.90;;;;;;5020816;28;20036;-41
2023/07/12 07:38:25;;;;;;;4.20;2.83;;;21.00;99.90;;;;;;5019523;28;20104;-39
2023/07/12 07:40:51;;;;;;;5.85;2.83;;;21.00;99.90;;;;;;5024395;28;20208;-38
2023/07/12 07:43:17;;;;;;;5.88;3.50;;;21.20;99.90;;;;;;5021666;28;20045;-38
2023/07/12 07:45:43;;;;;;;5.20;2.90;;;21.40;99.90;;;;;;5015433;28;20044;-39
2023/07/12 07:48:09;;;;;;;6.38;3.22;;;21.60;99.90;;;;;;5025217;28;20125;-40
2023/07/12 07:50:35;;;;;;;4.05;2.65;;;21.90;99.90;;;;;;5019912;28;20029;-41
2023/07/12 07:53:00;;;;;;;4.22;2.72;;;21.90;99.90;;;;;;5020393;28;20120;-39
2023/07/12 07:55:26;;;;;;;6.45;2.95;;;21.90;99.90;;;;;;5019006;28;20025;-34
2023/07/12 07:57:52;;;;;;;5.00;2.70;;;22.00;99.90;;;;;;5024033;28;20037;-31
2023/07/12 08:00:18;;;;;;;3.83;2.80;;;22.10;99.90;;;;;;5025666;28;20056;-33
2023/07/12 08:02:44;;;;;;;3.63;2.92;;;22.30;99.90;;;;;;5021328;28;20483;-31
2023/07/12 08:05:11;;;;;;;4.80;2.78;;;22.40;99.90;;;;;;5006178;28;20065;-31
2023/07/12 08:07:42;;;;;;;7.55;3.05;;;22.60;99.90;;;;;;5014561;28;20030;-31
2023/07/12 08:10:10;;;;;;;5.07;2.67;;;22.70;99.90;;;;;;5021109;28;20462;-33
2023/07/12 08:12:36;;;;;;;3.58;2.38;;;22.70;99.90;;;;;;5020753;28;20434;-31
2023/07/12 08:15:02;;;;;;;3.33;2.97;;;22.70;99.90;;;;;;5023377;28;20026;-33
2023/07/12 08:17:28;;;;;;;4.28;2.47;;;22.70;99.90;;;;;;5021233;28;20052;-32
2023/07/12 08:19:54;;;;;;;7.75;2.55;;;22.60;99.90;;;;;;5019643;28;21619;-31
2023/07/12 08:22:20;;;;;;;5.18;2.83;;;22.80;99.90;;;;;;5020942;28;20113;-31
2023/07/12 08:24:46;;;;;;;4.25;2.53;;;22.90;99.90;;;;;;5003489;28;20025;-32
2023/07/12 08:27:12;;;;;;;6.45;2.60;;;23.00;99.90;;;;;;5021421;28;20033;-34
2023/07/12 08:29:39;;;;;;;4.43;2.45;;;23.10;99.90;;;;;;5023689;28;20660;-34
2023/07/12 08:32:05;;;;;;;3.17;2.25;;;23.20;99.90;;;;;;5016929;28;20091;-31
2023/07/12 08:34:30;;;;;;;3.83;3.03;;;23.40;99.90;;;;;;5023437;28;20030;-32
2023/07/12 08:36:56;;;;;;;4.80;2.35;;;23.50;99.90;;;;;;5019626;28;20491;-32
2023/07/12 08:39:22;;;;;;;5.25;2.95;;;23.70;99.90;;;;;;5019308;28;20103;-33
2023/07/12 08:41:48;;;;;;;5.10;2.97;;;23.80;99.90;;;;;;5017639;28;20080;-30
2023/07/12 08:44:14;;;;;;;3.90;2.85;;;24.10;99.90;;;;;;5020890;28;20021;-33
2023/07/12 08:46:52;;;;;;;5.60;2.95;;;24.30;99.90;;;;;;5019889;28;20049;-31
2023/07/12 08:49:18;;;;;;;4.95;2.92;;;24.40;99.90;;;;;;5022356;28;20064;-31
2023/07/12 08:51:45;;;;;;;4.60;3.13;;;24.50;99.90;;;;;;5018037;28;20060;-31
2023/07/12 08:54:33;;;;;;;4.85;2.75;;;24.60;99.90;;;;;;5022017;28;20109;-32
2023/07/12 08:57:31;;;;;;;8.40;3.60;;;24.60;99.90;;;;;;5022363;28;20048;-35
2023/07/12 09:00:07;;;;;;;5.15;3.30;;;24.40;99.90;;;;;;5017797;28;20034;-33
2023/07/12 09:02:33;;;;;;;6.38;3.28;;;24.50;99.90;;;;;;5021108;28;20042;-31
2023/07/12 09:05:09;;;;;;;7.28;3.30;;;24.30;99.90;;;;;;5023173;28;20037;-34
2023/07/12 09:07:35;;;;;;;5.20;3.10;;;24.40;99.90;;;;;;5022319;28;20033;-30
2023/07/12 09:10:01;;;;;;;5.47;3.40;;;24.50;99.90;;;;;;5019857;28;20018;-33
2023/07/12 09:12:30;;;;;;;7.53;3.38;;;24.70;99.90;;;;;;5017867;28;20025;-30
2023/07/12 09:15:00;;;;;;;5.88;2.78;;;24.80;99.90;;;;;;5023016;28;20566;-33
2023/07/12 09:17:30;;;;;;;5.25;3.17;;;24.90;99.90;;;;;;5016842;28;20022;-32
2023/07/12 09:19:56;;;;;;;3.78;2.80;;;24.90;99.90;;;;;;5020016;28;20055;-33
2023/07/12 09:22:22;;;;;;;7.05;3.17;;;24.70;99.90;;;;;;5021553;28;20025;-33
2023/07/12 09:24:53;;;;;;;3.08;2.58;;;24.90;99.90;;;;;;5021079;28;20030;-33
2023/07/12 09:27:25;;;;;;;5.70;2.97;;;25.00;99.90;;;;;;5023169;28;20502;-33
2023/07/12 09:29:59;;;;;;;4.18;2.78;;;25.30;99.90;;;;;;5022643;28;20671;-34
2023/07/12 09:32:34;;;;;;;7.88;3.67;;;25.40;99.90;;;;;;5021844;28;20033;-33
2023/07/12 09:35:02;;;;;;;6.55;3.00;;;25.30;99.90;;;;;;5026639;28;20056;-36
2023/07/12 09:37:33;;;;;;;;;;;25.40;99.90;;;;;;5023611;28;20069;-34
2023/07/12 09:40:02;;;;;;;6.30;4.22;;;25.30;99.90;;;;;;5023012;28;20370;-33
2023/07/12 09:42:30;;;;;;;5.75;3.15;;;25.40;99.90;;;;;;5024815;28;20091;-35
2023/07/12 09:44:58;;;;;;;7.05;3.45;;;25.50;99.90;;;;;;5019916;28;20113;-33
2023/07/12 09:47:42;;;;;;;;;;;25.70;99.90;;;;;;5026414;28;20037;-32
2023/07/12 09:50:21;;;;;;;6.40;3.50;;;25.70;99.90;;;;;;5020842;28;19916;-35
2023/07/12 09:53:20;;;;;;;6.40;3.45;;;25.50;99.90;;;;;;5026028;28;20112;-32
2023/07/12 09:56:05;;;;;;;5.63;3.50;;;25.60;99.90;;;;;;4999267;28;20104;-34
2023/07/12 09:59:05;;;;;;;5.28;3.25;;;25.50;99.90;;;;;;5018779;28;20045;-33
2023/07/12 10:01:48;;;;;;;5.90;3.90;;;25.40;99.90;;;;;;4991583;28;20507;-36
2023/07/12 10:04:37;;;;;;;6.07;3.72;;;25.50;99.90;;;;;;5003938;28;20070;-33
2023/07/12 10:07:14;;;;;;;5.80;3.47;;;26.00;99.90;;;;;;5003128;28;20030;-36
2023/07/12 10:09:44;;;;;;;5.55;3.70;;;26.50;99.90;;;;;;5002437;28;20388;-33
2023/07/12 10:12:23;;;;;;;6.68;3.40;;;26.90;99.90;;;;;;4998920;28;20108;-34
2023/07/12 10:14:50;;;;;;;3.97;3.25;;;26.60;99.90;;;;;;5005677;28;20042;-41
2023/07/12 10:17:30;;;;;;;6.40;3.55;;;26.60;99.90;;;;;;5002377;28;20045;-39
2023/07/12 10:19:56;;;;;;;4.65;3.15;;;26.30;99.90;;;;;;4998331;28;20144;-42
2023/07/12 10:22:38;;;;;;;4.68;3.08;;;26.50;99.90;;;;;;5001809;28;20823;-42
2023/07/12 10:25:24;;;;;;;5.88;3.20;;;26.00;99.90;;;;;;5006537;28;20213;-42
2023/07/12 10:28:22;;;;;;;8.20;3.42;;;25.90;99.90;;;;;;5006242;28;20538;-42
2023/07/12 10:30:50;;;;;;;11.50;3.78;;;26.10;99.90;;;;;;4994868;28;20044;-35
2023/07/12 10:33:33;;;;;;;5.40;3.70;;;26.00;99.90;;;;;;5000697;28;20129;-42
2023/07/12 10:36:07;;;;;;;6.53;3.90;;;26.20;99.90;;;;;;5003958;28;20030;-41
2023/07/12 10:38:33;;;;;;;7.00;3.65;;;26.20;99.90;;;;;;5002136;28;20037;-39
2023/07/12 10:41:05;;;;;;;5.07;3.42;;;26.30;99.90;;;;;;5003238;28;20034;-41
2023/07/12 10:43:47;;;;;;;5.35;3.53;;;26.60;99.90;;;;;;5000827;28;20093;-42
2023/07/12 10:46:48;;;;;;;7.30;3.28;;;26.70;99.90;;;;;;4999479;28;20116;-40
2023/07/12 10:49:34;;;;;;;5.07;3.72;;;26.50;99.90;;;;;;4972380;28;20069;-41
2023/07/12 10:52:11;;;;;;;6.60;3.95;;;26.40;99.90;;;;;;4999746;28;20022;-40
2023/07/12 10:54:37;;;;;;;;;;;26.30;99.90;;;;;;5003846;28;20026;-41
2023/07/12 10:57:06;;;;;;;7.47;3.85;;;26.40;99.90;;;;;;5003233;28;19918;-40
2023/07/12 10:59:32;;;;;;;5.10;3.83;;;26.60;99.90;;;;;;4997474;28;20214;-41
2023/07/12 11:02:03;;;;;;;5.85;3.67;;;26.80;99.90;;;;;;5006079;28;20610;-42
2023/07/12 11:04:35;;;;;;;6.55;3.95;;;27.30;99.90;;;;;;5001439;28;20152;-41
2023/07/12 11:07:02;;;;;;;4.72;3.88;;;27.40;99.90;;;;;;5000093;28;20109;-41
2023/07/12 11:09:47;;;;;;;6.15;3.47;;;27.40;99.90;;;;;;4984935;28;20041;-39
2023/07/12 11:12:32;;;;;;;5.72;4.10;;;27.50;99.90;;;;;;4999173;28;20026;-38
2023/07/12 11:15:23;;;;;;;5.50;4.05;;;27.50;99.90;;;;;;5001804;28;20129;-41
2023/07/12 11:18:35;;;;;;;5.72;4.03;;;27.40;99.90;;;;;;4998259;28;20043;-39
2023/07/12 11:21:07;;;;;;;5.72;4.30;;;27.50;99.90;;;;;;4942069;28;20035;-41
2023/07/12 11:23:38;;;;;;;6.25;4.60;;;27.50;99.90;;;;;;4995348;28;20504;-41
2023/07/12 11:26:23;;;;;;;6.97;3.85;;;27.60;99.90;;;;;;4995479;28;20034;-33
2023/07/12 11:28:50;;;;;;;5.30;3.85;;;27.90;99.90;;;;;;4999809;28;20110;-34
2023/07/12 11:31:18;;;;;;;6.40;4.13;;;28.30;99.90;;;;;;4997323;28;20385;-33
2023/07/12 11:33:54;;;;;;;5.90;4.25;;;28.30;99.90;;;;;;4985539;28;20018;-33
2023/07/12 11:36:26;;;;;;;7.45;4.72;;;28.40;99.90;;;;;;5003147;28;20030;-36
2023/07/12 11:38:53;;;;;;;6.70;4.28;;;28.50;99.90;;;;;;5002312;28;20496;-31
2023/07/12 11:41:23;;;;;;;5.90;4.40;;;28.40;99.90;;;;;;5002520;28;20061;-31
2023/07/12 11:44:05;;;;;;;7.68;4.47;;;28.50;99.90;;;;;;5002057;28;20511;-31
2023/07/12 11:46:35;;;;;;;7.45;4.45;;;28.40;99.90;;;;;;4999528;28;20037;-32
2023/07/12 11:49:18;;;;;;;6.00;4.30;;;28.80;99.90;;;;;;5006434;28;20030;-38
2023/07/12 11:51:46;;;;;;;6.43;4.30;;;29.30;99.90;;;;;;5001760;28;20095;-31
2023/07/12 11:54:18;;;;;;;5.18;3.95;;;29.30;99.90;;;;;;5003946;28;20038;-39
2023/07/12 11:56:45;;;;;;;4.88;3.92;;;29.70;99.90;;;;;;4989745;28;20068;-34
2023/07/12 11:59:19;;;;;;;6.97;4.20;;;29.80;99.90;;;;;;4982099;28;20041;-37
2023/07/12 12:01:47;;;;;;;5.63;4.35;;;29.80;99.90;;;;;;5024374;28;20538;-31
2023/07/12 12:04:25;;;;;;;8.05;4.20;;;29.80;99.90;;;;;;5024462;28;20805;-31
2023/07/12 12:06:52;;;;;;;;;;;29.90;99.90;;;;;;5022255;28;20060;-32
2023/07/12 12:09:38;;;;;;;7.93;4.95;;;30.10;99.90;;;;;;5024706;28;19917;-31
2023/07/12 12:12:07;;;;;;;6.93;4.22;;;30.00;99.90;;;;;;5017864;28;20084;-34
2023/07/12 12:14:41;;;;;;;7.75;4.22;;;29.60;99.90;;;;;;5024108;28;20582;-31
2023/07/12 12:17:14;;;;;;;6.63;4.75;;;29.30;99.90;;;;;;5023251;28;20022;-40
2023/07/12 12:19:39;;;;;;;7.20;4.90;;;29.00;99.90;;;;;;5020117;28;20049;-30
2023/07/12 12:22:15;;;;;;;8.75;4.78;;;28.70;99.90;;;;;;5022635;28;20060;-31
2023/07/12 12:24:47;;;;;;;6.45;3.88;;;28.40;99.90;;;;;;5021911;28;20018;-31
2023/07/12 12:27:26;;;;;;;5.72;4.00;;;27.80;99.90;;;;;;5022579;28;20022;-39
2023/07/12 12:29:52;;;;;;;12.63;4.97;;;26.70;99.90;;;;;;5023574;28;20040;-31
2023/07/12 12:32:20;;;;;;;3.67;2.70;;;25.20;99.90;;;;;;5017841;28;20782;-30
2023/07/12 12:34:53;;;;;;;4.22;2.75;;;23.20;99.90;;;;;;5022310;28;20021;-32
2023/07/12 12:37:29;;;;;;;4.90;3.28;;;21.60;99.90;;;;;;5020713;28;20041;-31
2023/07/12 12:40:00;;;;;;;5.05;3.05;;;20.90;99.90;;;;;;5019657;28;20451;-33
2023/07/12 12:42:27;;;;;;;4.90;3.60;;;21.00;99.90;;;;;;5021952;28;20029;-31
2023/07/12 12:44:55;;;;;;;5.60;4.07;;;21.20;99.90;;;;;;5018068;28;20117;-39
2023/07/12 12:47:23;;;;;;;7.57;4.15;;;21.60;99.90;;;;;;5019908;28;20038;-41
2023/07/12 12:49:49;;;;;;;4.22;3.60;;;21.80;99.90;;;;;;5020442;28;20426;-41
2023/07/12 12:52:26;;;;;;;9.85;4.57;;;21.80;99.90;;;;;;5017512;28;20117;-42
2023/07/12 12:54:52;;;;;;;7.38;4.05;;;21.80;99.90;;;;;;5013991;28;20033;-41
2023/07/12 12:57:18;;;;;;;8.98;4.78;;;22.30;99.90;;;;;;5019649;28;20701;-37